createdAt,value
2022-12-22T00:00:57.436Z,8.70
2022-12-22T00:03:02.821Z,11.65
2022-12-22T00:05:21.060Z,12.90
2022-12-22T00:07:26.140Z,12.60
2022-12-22T00:09:31.268Z,12.40
2022-12-22T00:11:36.728Z,13.13
2022-12-22T00:13:44.377Z,10.20
2022-12-22T00:15:49.482Z,9.18
2022-12-22T00:17:54.571Z,9.60
2022-12-22T00:19:59.582Z,13.27
2022-12-22T00:22:16.850Z,10.15
2022-12-22T00:24:21.909Z,10.57
2022-12-22T00:26:27.490Z,11.25
2022-12-22T00:28:32.867Z,8.68
2022-12-22T00:30:38.296Z,9.48
2022-12-22T00:32:45.150Z,10.60
2022-12-22T00:34:50.694Z,11.68
2022-12-22T00:36:55.835Z,11.00
2022-12-22T00:39:00.947Z,13.70
2022-12-22T00:41:06.090Z,14.88
2022-12-22T00:43:11.171Z,17.67
2022-12-22T00:45:16.307Z,13.57
2022-12-22T00:47:28.854Z,18.50
2022-12-22T00:49:37.051Z,14.30
2022-12-22T00:51:42.183Z,16.10
2022-12-22T00:53:47.393Z,13.93
2022-12-22T00:55:52.639Z,16.63
2022-12-22T00:57:57.730Z,17.85
2022-12-22T01:00:02.860Z,18.38
2022-12-22T01:02:08.139Z,17.40
2022-12-22T01:04:14.198Z,13.77
2022-12-22T01:06:19.669Z,12.60
2022-12-22T01:08:24.730Z,14.88
2022-12-22T01:10:30.945Z,13.73
2022-12-22T01:12:37.465Z,19.17
2022-12-22T01:14:42.507Z,14.30
2022-12-22T01:16:47.664Z,17.10
2022-12-22T01:18:52.806Z,12.75
2022-12-22T01:20:58.171Z,14.45
2022-12-22T01:23:03.225Z,14.63
2022-12-22T01:25:15.647Z,19.27
2022-12-22T01:27:20.879Z,14.98
2022-12-22T01:29:25.974Z,14.88
2022-12-22T01:31:35.262Z,16.40
2022-12-22T01:33:40.429Z,15.25
2022-12-22T01:35:45.482Z,15.07
2022-12-22T01:37:50.541Z,12.32
2022-12-22T01:39:55.825Z,13.27
2022-12-22T01:42:00.922Z,17.63
2022-12-22T01:44:08.546Z,14.23
2022-12-22T01:46:19.802Z,14.82
2022-12-22T01:48:31.126Z,12.73
2022-12-22T01:50:39.267Z,14.85
2022-12-22T01:52:44.536Z,14.05
2022-12-22T01:54:50.605Z,17.23
2022-12-22T01:56:55.818Z,13.15
2022-12-22T01:59:04.199Z,14.57
2022-12-22T02:01:09.386Z,17.60
2022-12-22T02:03:18.803Z,14.98
2022-12-22T02:05:24.889Z,20.93
2022-12-22T02:07:38.009Z,12.23
2022-12-22T02:09:52.620Z,14.02
2022-12-22T02:12:08.896Z,12.52
2022-12-22T02:14:29.950Z,13.20
2022-12-22T02:16:42.069Z,11.05
2022-12-22T02:18:50.647Z,11.70
2022-12-22T02:21:00.444Z,10.50
2022-12-22T02:23:08.983Z,21.33
2022-12-22T02:25:23.284Z,10.82
2022-12-22T02:27:30.046Z,15.63
2022-12-22T02:29:40.050Z,13.45
2022-12-22T02:31:45.391Z,12.80
2022-12-22T02:33:51.558Z,15.32
2022-12-22T02:36:02.860Z,14.77
2022-12-22T02:38:11.499Z,13.93
2022-12-22T02:40:25.985Z,13.43
2022-12-22T02:42:35.645Z,14.23
2022-12-22T02:44:49.489Z,19.38
2022-12-22T02:47:04.515Z,12.27
2022-12-22T02:49:19.350Z,15.90
2022-12-22T02:51:30.709Z,13.27
2022-12-22T02:53:36.784Z,13.55
2022-12-22T02:55:42.100Z,13.93
2022-12-22T02:57:47.297Z,13.05
2022-12-22T02:59:52.270Z,11.55
2022-12-22T03:01:57.809Z,12.60
2022-12-22T03:04:02.891Z,16.40
2022-12-22T03:06:08.078Z,16.58
2022-12-22T03:08:13.163Z,13.90
2022-12-22T03:10:18.545Z,12.40
2022-12-22T03:12:23.702Z,12.95
2022-12-22T03:14:28.675Z,17.08
2022-12-22T03:16:33.769Z,14.35
2022-12-22T03:18:38.983Z,12.98
2022-12-22T03:20:44.167Z,19.05
2022-12-22T03:22:49.198Z,18.75
2022-12-22T03:24:54.205Z,21.08
2022-12-22T03:26:56.188Z,17.85
2022-12-22T03:28:58.188Z,12.10
2022-12-22T03:31:04.497Z,19.67
2022-12-22T03:33:06.667Z,17.17
2022-12-22T03:35:09.151Z,16.77
2022-12-22T03:37:11.128Z,15.05
2022-12-22T03:39:13.077Z,22.85
2022-12-22T03:41:35.010Z,18.38
2022-12-22T03:43:40.142Z,20.08
2022-12-22T03:45:45.176Z,25.10
2022-12-22T03:47:47.371Z,16.58
2022-12-22T03:49:49.394Z,14.80
2022-12-22T03:51:52.010Z,11.30
2022-12-22T03:53:53.931Z,15.57
2022-12-22T03:55:56.035Z,15.68
2022-12-22T03:57:58.108Z,16.23
2022-12-22T04:00:00.033Z,12.63
2022-12-22T04:02:02.231Z,16.77
2022-12-22T04:04:04.572Z,12.75
2022-12-22T04:06:06.531Z,13.43
2022-12-22T04:08:08.411Z,13.02
2022-12-22T04:10:14.116Z,10.20
2022-12-22T04:12:19.148Z,14.48
2022-12-22T04:14:21.841Z,12.77
2022-12-22T04:16:23.822Z,13.93
2022-12-22T04:18:25.864Z,19.13
2022-12-22T04:20:28.572Z,10.93
2022-12-22T04:22:30.574Z,13.07
2022-12-22T04:24:32.592Z,14.57
2022-12-22T04:26:34.987Z,9.85
2022-12-22T04:28:36.971Z,13.52
2022-12-22T04:30:39.047Z,8.68
2022-12-22T04:32:41.063Z,12.88
2022-12-22T04:34:42.981Z,16.23
2022-12-22T04:36:44.985Z,12.05
2022-12-22T04:38:47.098Z,13.52
2022-12-22T04:40:49.034Z,15.98
2022-12-22T04:42:51.066Z,16.70
2022-12-22T04:44:53.083Z,10.80
2022-12-22T04:46:55.031Z,12.88
2022-12-22T04:49:00.313Z,13.25
2022-12-22T04:51:04.360Z,18.98
2022-12-22T04:53:06.263Z,14.00
2022-12-22T04:55:09.480Z,11.80
2022-12-22T04:57:11.749Z,10.55
2022-12-22T04:59:13.785Z,14.63
2022-12-22T05:01:18.365Z,13.45
2022-12-22T05:03:20.395Z,16.67
2022-12-22T05:05:22.340Z,13.18
2022-12-22T05:07:24.406Z,17.40
2022-12-22T05:09:26.307Z,12.57
2022-12-22T05:11:28.448Z,13.48
2022-12-22T05:13:31.568Z,14.20
2022-12-22T05:15:35.747Z,14.73
2022-12-22T05:17:37.704Z,12.45
2022-12-22T05:19:39.671Z,16.42
2022-12-22T05:21:41.598Z,18.45
2022-12-22T05:23:44.323Z,18.38
2022-12-22T05:25:46.238Z,21.80
2022-12-22T05:27:50.750Z,19.70
2022-12-22T05:29:52.779Z,14.30
2022-12-22T05:31:54.753Z,20.10
2022-12-22T05:33:56.701Z,19.52
2022-12-22T05:35:58.696Z,20.63
2022-12-22T05:38:00.656Z,16.80
2022-12-22T05:40:03.461Z,14.32
2022-12-22T05:42:05.645Z,11.13
2022-12-22T05:44:07.634Z,11.95
2022-12-22T05:46:11.485Z,16.38
2022-12-22T05:48:14.005Z,13.05
2022-12-22T05:50:18.911Z,12.98
2022-12-22T05:52:20.989Z,16.35
2022-12-22T05:54:22.962Z,25.73
2022-12-22T05:56:25.026Z,17.65
2022-12-22T05:58:26.990Z,22.38
2022-12-22T06:00:31.316Z,15.27
2022-12-22T06:02:33.495Z,13.23
2022-12-22T06:04:35.608Z,17.13
2022-12-22T06:06:37.540Z,15.75
2022-12-22T06:08:39.513Z,19.65
2022-12-22T06:10:41.546Z,23.00
2022-12-22T06:12:43.822Z,18.02
2022-12-22T06:14:45.866Z,17.27
2022-12-22T06:16:47.869Z,15.23
2022-12-22T06:18:49.814Z,18.13
2022-12-22T06:20:53.606Z,18.95
2022-12-22T06:22:55.624Z,16.73
2022-12-22T06:24:57.524Z,17.95
2022-12-22T06:26:59.620Z,16.40
2022-12-22T06:29:01.547Z,21.27
2022-12-22T06:31:03.652Z,21.55
2022-12-22T06:33:05.662Z,21.08
2022-12-22T06:35:10.081Z,15.18
2022-12-22T06:37:12.057Z,21.05
2022-12-22T06:39:15.562Z,16.77
2022-12-22T06:41:37.321Z,12.77
2022-12-22T06:43:39.296Z,13.10
2022-12-22T06:45:42.762Z,12.05
2022-12-22T06:47:44.778Z,9.52
2022-12-22T06:49:46.744Z,14.07
2022-12-22T06:51:49.182Z,13.48
2022-12-22T06:53:51.092Z,18.25
2022-12-22T06:55:53.154Z,12.75
2022-12-22T06:57:55.154Z,11.65
2022-12-22T06:59:57.914Z,14.75
2022-12-22T07:02:00.152Z,14.73
2022-12-22T07:04:02.349Z,13.45
2022-12-22T07:06:04.693Z,13.23
2022-12-22T07:08:09.059Z,11.68
2022-12-22T07:10:12.177Z,11.40
2022-12-22T07:12:14.136Z,14.45
2022-12-22T07:14:16.305Z,9.80
2022-12-22T07:16:18.405Z,13.25
2022-12-22T07:18:20.811Z,9.65
2022-12-22T07:20:22.783Z,10.60
2022-12-22T07:22:29.982Z,12.02
2022-12-22T07:24:33.333Z,15.27
2022-12-22T07:26:35.463Z,14.63
2022-12-22T07:28:39.077Z,10.80
2022-12-22T07:30:41.001Z,11.23
2022-12-22T07:32:42.944Z,11.02
2022-12-22T07:34:45.738Z,10.25
2022-12-22T07:36:47.798Z,6.80
2022-12-22T07:38:51.373Z,9.70
2022-12-22T07:41:04.494Z,9.07
2022-12-22T07:43:08.305Z,10.15
2022-12-22T07:45:11.707Z,9.02
2022-12-22T07:47:13.698Z,9.27
2022-12-22T07:49:19.031Z,7.80
2022-12-22T07:51:21.071Z,10.07
2022-12-22T07:53:23.091Z,13.80
2022-12-22T07:55:27.181Z,10.82
2022-12-22T07:57:29.222Z,11.02
2022-12-22T07:59:31.365Z,12.25
2022-12-22T08:01:33.501Z,11.85
2022-12-22T08:03:35.594Z,10.23
2022-12-22T08:05:38.166Z,9.38
2022-12-22T08:07:40.190Z,9.27
2022-12-22T08:09:42.254Z,8.63
2022-12-22T08:11:44.251Z,8.18
2022-12-22T08:13:46.766Z,9.40
2022-12-22T08:15:48.944Z,7.63
2022-12-22T08:17:50.860Z,8.15
2022-12-22T08:19:53.096Z,9.63
2022-12-22T08:21:55.105Z,13.93
2022-12-22T08:23:57.133Z,8.43
2022-12-22T08:26:02.693Z,6.82
2022-12-22T08:28:05.275Z,8.45
2022-12-22T08:30:08.843Z,11.18
2022-12-22T08:32:13.046Z,9.55
2022-12-22T08:34:16.835Z,8.45
2022-12-22T08:36:18.988Z,8.57
2022-12-22T08:38:21.168Z,8.57
2022-12-22T08:40:30.872Z,12.38
2022-12-22T08:42:34.145Z,9.15
2022-12-22T08:44:39.235Z,10.07
2022-12-22T08:46:41.308Z,8.27
2022-12-22T08:48:43.408Z,8.23
2022-12-22T08:50:45.488Z,10.98
2022-12-22T08:52:47.567Z,12.13
2022-12-22T08:54:49.601Z,10.73
2022-12-22T08:56:51.678Z,11.02
2022-12-22T08:58:53.671Z,13.00
2022-12-22T09:00:55.867Z,24.27
2022-12-22T09:02:58.223Z,29.15
2022-12-22T09:05:00.485Z,32.15
2022-12-22T09:07:02.826Z,21.35
2022-12-22T09:09:08.002Z,20.38
2022-12-22T09:11:09.978Z,15.23
2022-12-22T09:13:12.110Z,17.10
2022-12-22T09:15:14.962Z,15.82
2022-12-22T09:17:16.946Z,14.43
2022-12-22T09:19:19.269Z,14.50
2022-12-22T09:21:22.084Z,15.40
2022-12-22T09:23:24.190Z,15.68
2022-12-22T09:25:26.483Z,22.58
2022-12-22T09:27:31.018Z,32.13
2022-12-22T09:29:33.363Z,27.73
2022-12-22T09:31:35.486Z,21.52
2022-12-22T09:33:37.951Z,22.38
2022-12-22T09:35:41.900Z,17.88
2022-12-22T09:37:43.995Z,15.82
2022-12-22T09:39:46.455Z,16.88
2022-12-22T09:41:52.052Z,17.63
2022-12-22T09:43:56.168Z,18.80
2022-12-22T09:45:58.741Z,18.95
2022-12-22T09:48:02.425Z,17.83
2022-12-22T09:50:08.983Z,18.63
2022-12-22T09:52:24.462Z,16.20
2022-12-22T09:54:27.385Z,17.45
2022-12-22T09:56:29.714Z,14.20
2022-12-22T09:58:34.719Z,14.23
2022-12-22T10:00:37.755Z,13.18
2022-12-22T10:02:53.076Z,14.73
2022-12-22T10:05:05.113Z,12.73
2022-12-22T10:07:13.524Z,18.50
2022-12-22T10:09:48.326Z,11.95
2022-12-22T10:11:51.639Z,11.75
2022-12-22T10:13:53.676Z,18.48
2022-12-22T10:15:56.608Z,11.45
2022-12-22T10:18:12.436Z,9.27
2022-12-22T10:20:21.216Z,10.63
2022-12-22T10:22:27.823Z,16.75
2022-12-22T10:24:35.356Z,19.15
2022-12-22T10:26:37.707Z,31.00
2022-12-22T10:28:44.779Z,12.93
2022-12-22T10:30:46.972Z,10.38
2022-12-22T10:33:04.280Z,10.30
2022-12-22T10:35:07.281Z,8.85
2022-12-22T10:37:09.389Z,15.18
2022-12-22T10:39:12.232Z,9.00
2022-12-22T10:41:20.208Z,8.40
2022-12-22T10:43:25.313Z,12.45
2022-12-22T10:45:28.425Z,8.38
2022-12-22T10:47:30.588Z,11.90
2022-12-22T10:51:41.241Z,13.23
2022-12-22T10:53:48.191Z,13.02
2022-12-22T10:56:06.263Z,9.73
2022-12-22T10:58:10.340Z,9.75
2022-12-22T11:00:18.594Z,11.52
2022-12-22T11:02:23.221Z,11.07
2022-12-22T11:04:28.274Z,16.23
2022-12-22T11:06:30.289Z,12.80
2022-12-22T11:08:32.921Z,16.77
2022-12-22T11:10:41.806Z,8.63
2022-12-22T11:12:50.371Z,11.38
2022-12-22T11:15:01.123Z,10.90
2022-12-22T11:19:20.316Z,16.75
2022-12-22T11:21:26.143Z,15.63
2022-12-22T11:23:34.943Z,10.27
2022-12-22T11:25:46.760Z,18.73
2022-12-22T11:27:54.899Z,17.02
2022-12-22T11:30:00.507Z,17.23
2022-12-22T11:32:08.899Z,17.40
2022-12-22T11:34:20.677Z,17.65
2022-12-22T11:36:28.798Z,16.13
2022-12-22T11:38:34.396Z,18.60
2022-12-22T11:40:40.049Z,17.45
2022-12-22T11:42:52.249Z,22.83
2022-12-22T11:45:15.903Z,15.43
2022-12-22T11:47:19.873Z,22.17
2022-12-22T11:49:33.028Z,27.77
2022-12-22T11:51:41.398Z,16.10
2022-12-22T11:53:49.731Z,18.15
2022-12-22T11:55:59.556Z,16.55
2022-12-22T11:58:14.507Z,15.93
2022-12-22T12:00:19.186Z,13.68
2022-12-22T12:02:22.267Z,14.65
2022-12-22T12:04:30.798Z,12.95
2022-12-22T12:06:37.578Z,13.50
2022-12-22T12:08:44.183Z,23.42
2022-12-22T12:10:51.769Z,20.67
2022-12-22T12:12:57.774Z,25.08
2022-12-22T12:15:05.942Z,16.83
2022-12-22T12:17:09.011Z,20.02
2022-12-22T12:19:18.128Z,17.50
2022-12-22T12:21:27.331Z,24.58
2022-12-22T12:23:44.774Z,19.98
2022-12-22T12:25:55.838Z,20.50
2022-12-22T12:28:05.913Z,16.33
2022-12-22T12:32:43.395Z,18.75
2022-12-22T12:34:50.247Z,16.67
2022-12-22T12:36:55.810Z,15.15
2022-12-22T12:39:08.785Z,19.38
2022-12-22T12:41:15.101Z,13.10
2022-12-22T12:43:19.199Z,19.08
2022-12-22T12:45:27.613Z,24.73
2022-12-22T12:47:32.204Z,20.02
2022-12-22T12:49:34.963Z,15.07
2022-12-22T12:51:43.255Z,13.18
2022-12-22T12:54:08.310Z,11.77
2022-12-22T12:56:10.683Z,13.38
2022-12-22T12:58:33.207Z,16.40
2022-12-22T13:00:38.541Z,18.25
2022-12-22T13:02:58.301Z,16.48
2022-12-22T13:05:03.940Z,20.98
2022-12-22T13:07:06.232Z,12.63
2022-12-22T13:09:48.675Z,15.13
2022-12-22T13:12:11.210Z,10.10
2022-12-22T13:13:58.257Z,15.82
2022-12-22T13:16:02.597Z,16.20
2022-12-22T13:18:18.717Z,13.55
2022-12-22T13:20:28.389Z,11.50
2022-12-22T13:22:30.792Z,18.13
2022-12-22T13:24:47.228Z,26.25
2022-12-22T13:26:55.373Z,17.92
2022-12-22T13:29:02.200Z,13.00
2022-12-22T13:31:13.552Z,16.13
2022-12-22T13:33:20.106Z,11.25
2022-12-22T13:35:32.550Z,16.63
2022-12-22T13:37:40.953Z,17.48
2022-12-22T13:39:43.122Z,17.20
2022-12-22T13:41:48.596Z,13.45
2022-12-22T13:43:57.603Z,19.15
2022-12-22T13:46:03.911Z,14.97
2022-12-22T13:48:13.045Z,17.10
2022-12-22T13:50:20.132Z,22.40
2022-12-22T13:52:23.960Z,21.50
2022-12-22T13:54:32.639Z,20.88
2022-12-22T13:56:40.250Z,18.65
2022-12-22T13:58:45.594Z,14.40
2022-12-22T14:01:01.555Z,16.23
2022-12-22T14:03:09.167Z,15.60
2022-12-22T14:05:13.660Z,19.65
2022-12-22T14:07:19.685Z,21.40
2022-12-22T14:09:25.714Z,16.55
2022-12-22T14:11:27.858Z,17.45
2022-12-22T14:13:33.164Z,21.00
2022-12-22T14:15:35.587Z,18.13
2022-12-22T14:17:47.819Z,18.90
2022-12-22T14:19:56.612Z,18.80
2022-12-22T14:22:06.107Z,17.75
2022-12-22T14:24:14.897Z,19.70
2022-12-22T14:26:23.556Z,18.25
2022-12-22T14:28:27.841Z,14.30
2022-12-22T14:30:38.581Z,22.40
2022-12-22T14:32:52.358Z,17.08
2022-12-22T14:34:56.508Z,16.05
2022-12-22T14:37:01.743Z,19.08
2022-12-22T14:39:10.484Z,18.58
2022-12-22T14:41:22.884Z,18.25
2022-12-22T14:43:30.964Z,19.92
2022-12-22T14:45:34.020Z,20.90
2022-12-22T14:47:37.827Z,17.70
2022-12-22T14:49:46.381Z,19.45
2022-12-22T14:52:00.750Z,19.60
2022-12-22T14:54:04.156Z,22.90
2022-12-22T14:56:12.880Z,22.38
2022-12-22T14:58:20.887Z,20.92
2022-12-22T15:00:24.156Z,20.55
2022-12-22T15:02:36.677Z,19.10
2022-12-22T15:04:41.155Z,18.70
2022-12-22T15:06:46.257Z,17.05
2022-12-22T15:08:48.562Z,22.58
2022-12-22T15:10:50.783Z,20.13
2022-12-22T15:12:59.833Z,20.17
2022-12-22T15:15:02.357Z,21.80
2022-12-22T15:17:06.736Z,20.95
2022-12-22T15:19:13.197Z,15.40
2022-12-22T15:21:17.841Z,16.02
2022-12-22T15:23:19.955Z,21.58
2022-12-22T15:25:23.766Z,22.15
2022-12-22T15:27:25.909Z,21.15
2022-12-22T15:29:28.244Z,28.52
2022-12-22T15:31:30.534Z,25.92
2022-12-22T15:33:32.853Z,21.02
2022-12-22T15:35:35.639Z,12.93
2022-12-22T15:37:37.662Z,23.02
2022-12-22T15:39:40.584Z,22.75
2022-12-22T15:41:43.788Z,21.20
2022-12-22T15:44:01.310Z,20.75
2022-12-22T15:46:07.417Z,21.38
2022-12-22T15:48:18.760Z,16.30
2022-12-22T15:50:29.300Z,21.27
2022-12-22T15:52:33.429Z,17.65
2022-12-22T15:54:36.603Z,17.92
2022-12-22T15:56:39.456Z,17.35
2022-12-22T15:58:41.823Z,21.27
2022-12-22T16:00:44.370Z,20.35
2022-12-22T16:02:46.937Z,16.38
2022-12-22T16:04:49.235Z,19.00
2022-12-22T16:06:52.238Z,20.73
2022-12-22T16:08:55.291Z,16.48
2022-12-22T16:10:58.232Z,14.20
2022-12-22T16:13:03.859Z,15.60
2022-12-22T16:15:06.975Z,17.38
2022-12-22T16:17:18.768Z,14.45
2022-12-22T16:19:21.118Z,17.33
2022-12-22T16:21:30.799Z,19.50
2022-12-22T16:23:32.960Z,23.63
2022-12-22T16:25:39.115Z,18.77
2022-12-22T16:27:41.604Z,16.10
2022-12-22T16:29:53.426Z,21.00
2022-12-22T16:32:17.074Z,24.42
2022-12-22T16:34:20.042Z,21.35
2022-12-22T16:36:22.128Z,20.70
2022-12-22T16:38:24.236Z,22.75
2022-12-22T16:40:28.336Z,17.42
2022-12-22T16:46:39.498Z,31.52
2022-12-22T16:48:47.138Z,20.10
2022-12-22T16:50:49.406Z,16.88
2022-12-22T16:52:51.676Z,20.17
2022-12-22T16:54:53.769Z,19.13
2022-12-22T16:56:56.147Z,31.45
2022-12-22T16:58:58.707Z,24.55
2022-12-22T17:01:00.921Z,23.95
2022-12-22T17:03:13.489Z,26.13
2022-12-22T17:05:25.811Z,23.10
2022-12-22T17:07:33.946Z,22.63
2022-12-22T17:09:44.168Z,32.75
2022-12-22T17:11:47.341Z,29.85
2022-12-22T17:13:53.041Z,37.85
2022-12-22T17:15:55.241Z,27.90
2022-12-22T17:17:57.478Z,23.75
2022-12-22T17:19:59.777Z,31.30
2022-12-22T17:22:02.078Z,31.77
2022-12-22T17:24:05.007Z,27.42
2022-12-22T17:26:10.037Z,38.58
2022-12-22T17:28:14.101Z,25.80
2022-12-22T17:30:19.160Z,38.78
2022-12-22T17:32:22.240Z,37.58
2022-12-22T17:34:24.556Z,39.22
2022-12-22T17:36:30.469Z,30.95
2022-12-22T17:38:32.803Z,38.28
2022-12-22T17:40:34.920Z,36.60
2022-12-22T17:42:37.040Z,35.33
2022-12-22T17:44:39.550Z,38.03
2022-12-22T17:46:42.239Z,33.13
2022-12-22T17:48:45.787Z,36.50
2022-12-22T17:50:49.995Z,40.38
2022-12-22T17:52:52.498Z,36.78
2022-12-22T17:54:54.789Z,41.38
2022-12-22T17:57:02.290Z,31.00
2022-12-22T17:59:04.830Z,35.35
2022-12-22T18:01:07.366Z,40.28
2022-12-22T18:03:14.091Z,35.67
2022-12-22T18:05:18.437Z,36.70
2022-12-22T18:07:23.242Z,33.53
2022-12-22T18:09:26.792Z,41.05
2022-12-22T18:11:29.014Z,32.17
2022-12-22T18:13:32.325Z,38.70
2022-12-22T18:15:34.294Z,43.05
2022-12-22T18:17:36.373Z,35.40
2022-12-22T18:19:38.963Z,40.13
2022-12-22T18:21:41.381Z,35.60
2022-12-22T18:23:49.875Z,36.03
2022-12-22T18:25:52.856Z,40.00
2022-12-22T18:27:55.175Z,29.40
2022-12-22T18:29:57.369Z,40.40
2022-12-22T18:31:59.772Z,39.67
2022-12-22T18:34:01.871Z,27.48
2022-12-22T18:36:04.880Z,35.42
2022-12-22T18:38:07.775Z,41.28
2022-12-22T18:40:16.111Z,31.35
2022-12-22T18:42:22.402Z,33.25
2022-12-22T18:44:24.847Z,31.25
2022-12-22T18:46:27.072Z,27.55
2022-12-22T18:48:29.296Z,27.25
2022-12-22T18:50:33.063Z,33.28
2022-12-22T18:52:35.111Z,29.00
2022-12-22T18:54:38.272Z,36.70
2022-12-22T18:56:40.458Z,26.90
2022-12-22T18:58:43.078Z,22.75
2022-12-22T19:00:45.662Z,21.67
2022-12-22T19:02:49.319Z,26.48
2022-12-22T19:04:52.160Z,29.30
2022-12-22T19:06:54.366Z,34.63
2022-12-22T19:08:56.550Z,34.33
2022-12-22T19:11:00.775Z,25.00
2022-12-22T19:13:05.160Z,22.42
2022-12-22T19:15:16.376Z,22.85
2022-12-22T19:17:22.466Z,21.80
2022-12-22T19:19:24.681Z,24.73
2022-12-22T19:21:27.993Z,25.83
2022-12-22T19:23:30.012Z,19.85
2022-12-22T19:25:32.795Z,24.23
2022-12-22T19:27:34.912Z,25.42
2022-12-22T19:29:37.127Z,22.92
2022-12-22T19:31:39.420Z,21.02
2022-12-22T19:33:43.240Z,19.50
2022-12-22T19:35:45.398Z,21.40
2022-12-22T19:37:49.829Z,14.35
2022-12-22T19:39:51.914Z,15.93
2022-12-22T19:41:54.841Z,14.90
2022-12-22T19:43:57.255Z,16.80
2022-12-22T19:45:59.896Z,17.27
2022-12-22T19:48:04.613Z,13.50
2022-12-22T19:50:15.733Z,16.65
2022-12-22T19:52:17.774Z,16.27
2022-12-22T19:54:19.963Z,12.85
2022-12-22T19:56:25.719Z,21.30
2022-12-22T19:58:36.241Z,11.27
2022-12-22T20:00:39.202Z,15.48
2022-12-22T20:02:41.702Z,16.20
2022-12-22T20:04:43.762Z,15.88
2022-12-22T20:06:45.809Z,14.70
2022-12-22T20:08:47.877Z,9.55
2022-12-22T20:10:56.323Z,12.80
2022-12-22T20:15:10.584Z,10.00
2022-12-22T20:17:12.730Z,9.73
2022-12-22T20:19:15.709Z,5.70
2022-12-22T20:21:27.257Z,11.43
2022-12-22T20:23:33.170Z,9.90
2022-12-22T20:25:40.255Z,6.28
2022-12-22T20:27:42.628Z,8.63
2022-12-22T20:29:44.644Z,9.05
2022-12-22T20:31:46.638Z,14.45
2022-12-22T20:33:49.905Z,4.82
2022-12-22T20:35:53.454Z,6.63
2022-12-22T20:37:55.556Z,10.95
2022-12-22T20:39:57.717Z,5.88
2022-12-22T20:41:59.772Z,7.95
2022-12-22T20:44:01.788Z,5.55
2022-12-22T20:46:14.140Z,9.27
2022-12-22T20:48:23.790Z,4.13
2022-12-22T20:50:28.955Z,7.78
2022-12-22T20:52:30.994Z,4.35
2022-12-22T20:54:33.300Z,7.97
2022-12-22T20:56:39.016Z,4.65
2022-12-22T20:58:41.173Z,5.50
2022-12-22T21:00:43.745Z,3.00
2022-12-22T21:02:46.407Z,3.47
2022-12-22T21:04:49.242Z,2.90
2022-12-22T21:06:53.953Z,5.93
2022-12-22T21:08:57.893Z,3.08
2022-12-22T21:11:00.979Z,4.25
2022-12-22T21:13:03.070Z,4.75
2022-12-22T21:15:05.894Z,3.97
2022-12-22T21:17:16.484Z,6.25
2022-12-22T21:21:23.949Z,7.60
2022-12-22T21:23:26.379Z,5.90
2022-12-22T21:25:28.752Z,8.35
2022-12-22T21:27:31.255Z,4.72
2022-12-22T21:29:33.387Z,6.40
2022-12-22T21:31:35.632Z,6.43
2022-12-22T21:33:37.627Z,4.57
2022-12-22T21:35:39.804Z,4.00
2022-12-22T21:37:42.785Z,3.88
2022-12-22T21:39:45.152Z,3.15
2022-12-22T21:41:50.225Z,4.20
2022-12-22T21:43:52.324Z,4.10
2022-12-22T21:45:54.461Z,4.53
2022-12-22T21:48:01.101Z,2.00
2022-12-22T21:50:05.102Z,2.58
2022-12-22T21:52:07.176Z,5.28
2022-12-22T21:54:09.211Z,3.08
2022-12-22T21:56:17.772Z,5.18
2022-12-22T21:58:19.780Z,5.20
2022-12-22T22:00:22.921Z,3.92
2022-12-22T22:02:25.451Z,5.15
2022-12-22T22:04:27.429Z,2.80
2022-12-22T22:06:29.489Z,3.72
2022-12-22T22:08:31.460Z,2.63
2022-12-22T22:10:36.594Z,2.53
2022-12-22T22:12:42.356Z,3.70
2022-12-22T22:14:44.528Z,1.95
2022-12-22T22:16:46.586Z,2.58
2022-12-22T22:18:49.435Z,2.17
2022-12-22T22:20:51.394Z,2.42
2022-12-22T22:22:55.704Z,2.40
2022-12-22T22:24:57.773Z,2.03
2022-12-22T22:27:00.007Z,2.75
2022-12-22T22:29:02.166Z,1.67
2022-12-22T22:31:10.485Z,1.50
2022-12-22T22:33:12.733Z,2.70
2022-12-22T22:35:15.641Z,3.70
2022-12-22T22:37:17.795Z,1.60
2022-12-22T22:39:20.309Z,3.28
2022-12-22T22:41:22.493Z,1.30
2022-12-22T22:43:24.687Z,2.20
2022-12-22T22:45:26.747Z,3.35
2022-12-22T22:47:29.019Z,1.85
2022-12-22T22:49:31.297Z,1.52
2022-12-22T22:51:33.965Z,1.55
2022-12-22T22:53:36.273Z,1.73
2022-12-22T22:55:38.430Z,1.67
2022-12-22T22:57:42.015Z,2.05
2022-12-22T22:59:44.221Z,3.63
2022-12-22T23:01:46.592Z,1.83
2022-12-22T23:03:48.950Z,2.70
2022-12-22T23:05:51.069Z,2.90
2022-12-22T23:07:53.189Z,2.00
2022-12-22T23:09:55.431Z,2.80
2022-12-22T23:11:57.515Z,2.42
2022-12-22T23:14:00.048Z,3.20
2022-12-22T23:16:04.138Z,3.08
2022-12-22T23:18:06.300Z,2.05
2022-12-22T23:20:09.189Z,2.53
2022-12-22T23:22:11.406Z,2.67
2022-12-22T23:24:13.636Z,2.42
2022-12-22T23:26:15.903Z,2.80
2022-12-22T23:28:18.783Z,2.28
2022-12-22T23:30:20.921Z,4.47
2022-12-22T23:32:23.737Z,1.80
2022-12-22T23:34:26.031Z,2.42
2022-12-22T23:36:28.574Z,2.85
2022-12-22T23:38:30.811Z,2.58
2022-12-22T23:40:51.527Z,3.05
2022-12-22T23:42:56.981Z,4.88
2022-12-22T23:44:59.440Z,4.55
2022-12-22T23:47:01.865Z,2.78
2022-12-22T23:49:04.340Z,2.53
2022-12-22T23:51:07.765Z,2.95
2022-12-22T23:53:09.813Z,2.40
2022-12-22T23:55:11.990Z,3.92
2022-12-22T23:57:14.142Z,2.42
2022-12-22T23:59:16.307Z,2.08
